PMO weather

Falcone–Borsellino Airport
Palermo, Sicily, Italy

Public forecast

Using degrees Celsius for public forecast. Weather courtesy of forecast.io.

Current aviation weather report (METAR) for Falcone–Borsellino Airport

Retrieved 2019/11/20 02:20 UTC (35 minutes ago):

LICJ 200220Z 23013KT 9999 FEW030 SCT050 15/09 Q1014

Aviation forecast (TAF) for Falcone–Borsellino Airport

Retrieved 2019-11-20 00:00 UTC (3 hours ago):

TAF LICJ 192300Z 2000/2024 27015KT 9999 SCT030 BECMG 2016/2018 20010KT